Sheridan County Airport
KSHR : now visible

Airfield :











YOU CAN JOIN US ON...

 
LOGIN :

Register | Disclaimer

   EN    FR    IT 

 









Legend :    VFR   Marginal VFR   IFR   Intensive IFR   Very Intensive IFR
Visi :
Ceiling :
>= 8 km
>= 3000ft
5 to 8 km
1000 to 3000 ft
1500m to 5 km
500 to 1000 ft
800 to 1500m
200 to 500 ft
< 800m
< 200 ft
Symbols :   Thunderstorms  Fog  Heavy snow  Heavy precipitations  Wind > 20 kt






- Airport Elevation : 4021 ft
- IATA code : SHR


KSHR - Sheridan County

CURRENT METAR :
  • 280053Z AUTO 16005KT 10SM CLR 21/07 A3009 RMK AO2 SLP162 T02110067

EXPIRED METARs :
  • 272353Z AUTO 20003KT 10SM CLR 22/06 A3009 RMK AO2 SLP163 T02170061 10222 20178 58002
  • 272253Z AUTO 20005KT 10SM FEW095 22/06 A3009 RMK AO2 SLP161 T02170061

TAF KSHR
Valid from the 28 at 00:00 until the 29 at 00:00 UTC


272327Z 2800/2824 VRB05KT P6SM VCSH SCT070 BKN120
FM280500 VRB05KT P6SM BKN060
KZLC FIR / North America



MET'MAP, your aeronautical weather chart ! - Copyright ORBIFLY December 2007 - Disclaimer

ORBIFLY MET'MAP TEAM :

Programming & Development : Alexandra Zaïnal
Concept & original design : Baudouin d'Aumeries
Assistance for programming : Marc-Olivier Méhu
Technical & hardware support : Manuel Goepfert

Contact : metmap@orbifly.com




SOURCES & CREDITS :

   NOAA       Earth
Advisory